Time;durP1;ratioP1;P1;durP2;ratioP2;P2;SDS_P1;SDS_P2;PMS_P1;PMS_P2;Temp;Humidity;BMP_temperature;BMP_pressure;BME280_temperature;BME280_humidity;BME280_pressure;Samples;Min_cycle;Max_cycle;Signal;HPM_P1;HPM_P2
2021/12/08 00:00:28;;;;;;;5.90;2.95;;;3.90;99.90;;;;;;5134013;27;20304;-64
2021/12/08 00:02:58;;;;;;;3.25;2.60;;;4.00;99.90;;;;;;5131671;27;20748;-63
2021/12/08 00:05:27;;;;;;;6.15;2.65;;;4.10;99.90;;;;;;5134319;27;20613;-62
2021/12/08 00:07:55;;;;;;;3.30;2.30;;;4.10;99.90;;;;;;5133937;27;20296;-62
2021/12/08 00:10:51;;;;;;;6.65;2.35;;;4.20;99.90;;;;;;5134200;27;20221;-63
2021/12/08 00:13:18;;;;;;;2.75;2.30;;;4.30;99.90;;;;;;5151972;27;20235;-63
2021/12/08 00:15:47;;;;;;;4.07;2.45;;;4.30;99.90;;;;;;5136376;27;20202;-63
2021/12/08 00:18:19;;;;;;;5.63;2.63;;;4.30;99.90;;;;;;5144823;27;20197;-63
2021/12/08 00:20:47;;;;;;;5.70;2.45;;;4.30;99.90;;;;;;5150525;27;20283;-64
2021/12/08 00:23:16;;;;;;;7.10;3.15;;;4.30;99.90;;;;;;5133827;27;20776;-64
2021/12/08 00:25:44;;;;;;;4.55;3.00;;;4.10;99.90;;;;;;5134239;27;20239;-64
2021/12/08 00:28:13;;;;;;;4.10;2.90;;;4.10;99.90;;;;;;5134037;27;20197;-63
2021/12/08 00:30:47;;;;;;;4.85;2.80;;;4.00;99.90;;;;;;5133691;27;20228;-63
2021/12/08 00:33:17;;;;;;;3.95;2.70;;;3.80;99.90;;;;;;5133708;27;20223;-62
2021/12/08 00:35:48;;;;;;;3.67;2.20;;;3.80;99.90;;;;;;5133761;27;20197;-62
2021/12/08 00:38:18;;;;;;;1.83;1.73;;;3.70;99.90;;;;;;5141184;27;20196;-63
2021/12/08 00:40:46;;;;;;;2.60;2.10;;;3.70;99.90;;;;;;5154225;27;20718;-63
2021/12/08 00:43:14;;;;;;;8.32;2.38;;;3.80;99.90;;;;;;5154140;27;20216;-63
2021/12/08 00:45:43;;;;;;;2.95;1.65;;;3.80;99.90;;;;;;5136239;27;20217;-63
2021/12/08 00:48:11;;;;;;;3.55;1.73;;;3.80;99.90;;;;;;5133163;27;20223;-62
2021/12/08 00:50:41;;;;;;;6.07;2.17;;;3.80;99.90;;;;;;5133219;27;20209;-62
2021/12/08 00:53:09;;;;;;;3.13;2.55;;;3.80;99.90;;;;;;5133343;27;20270;-63
2021/12/08 00:55:38;;;;;;;2.15;1.75;;;3.70;99.90;;;;;;5133360;27;20616;-63
2021/12/08 00:58:07;;;;;;;3.58;2.55;;;3.70;99.90;;;;;;5138046;27;20233;-63
2021/12/08 01:00:38;;;;;;;4.50;2.58;;;3.70;99.90;;;;;;5153807;27;20216;-63
2021/12/08 01:03:11;;;;;;;4.13;2.20;;;3.60;99.90;;;;;;5154058;27;20213;-62
2021/12/08 01:05:42;;;;;;;4.65;2.33;;;3.50;99.90;;;;;;5154070;27;20602;-63
2021/12/08 01:08:11;;;;;;;3.45;2.85;;;3.50;99.90;;;;;;5154023;27;20221;-62
2021/12/08 01:10:42;;;;;;;3.28;2.20;;;3.60;99.90;;;;;;5153247;27;20231;-62
2021/12/08 01:13:12;;;;;;;3.95;2.10;;;3.60;99.90;;;;;;5171335;22;20709;-67
2021/12/08 01:15:43;;;;;;;8.68;2.30;;;3.60;99.90;;;;;;5049862;28;20212;-70
2021/12/08 01:18:11;;;;;;;3.70;2.47;;;3.60;99.90;;;;;;5051683;28;20196;-68
2021/12/08 01:20:39;;;;;;;4.97;2.25;;;3.50;99.90;;;;;;5051262;28;20278;-69
2021/12/08 01:23:13;;;;;;;6.63;2.30;;;3.50;99.90;;;;;;5032440;28;20189;-68
2021/12/08 01:25:41;;;;;;;4.38;2.00;;;3.50;99.90;;;;;;5051683;28;20664;-70
2021/12/08 01:28:09;;;;;;;5.50;2.03;;;3.50;99.90;;;;;;5051572;28;20306;-70
2021/12/08 01:30:37;;;;;;;3.00;1.92;;;3.50;99.90;;;;;;5051612;28;20196;-70
2021/12/08 01:33:05;;;;;;;3.13;2.10;;;3.40;99.90;;;;;;5051331;28;20196;-70
2021/12/08 01:35:33;;;;;;;3.05;2.15;;;3.30;99.90;;;;;;5052594;28;20234;-70
2021/12/08 01:38:01;;;;;;;2.28;2.10;;;3.30;99.90;;;;;;5071672;28;20196;-70
2021/12/08 01:40:31;;;;;;;2.80;2.15;;;3.30;99.90;;;;;;5071266;28;20194;-70
2021/12/08 01:43:01;;;;;;;4.65;2.70;;;3.10;99.90;;;;;;5071257;28;20291;-70
2021/12/08 01:48:20;;;;;;;4.40;2.28;;;3.00;99.90;;;;;;5071414;28;20272;-70
2021/12/08 01:50:50;;;;;;;2.95;2.20;;;3.00;99.90;;;;;;5070789;28;20640;-70
2021/12/08 01:53:18;;;;;;;4.53;2.00;;;2.90;99.90;;;;;;5071412;28;20573;-70
2021/12/08 01:55:47;;;;;;;5.22;2.35;;;2.80;99.90;;;;;;5071446;28;20219;-70
2021/12/08 01:58:16;;;;;;;3.00;2.45;;;2.80;99.90;;;;;;5071710;28;20199;-71
2021/12/08 02:00:48;;;;;;;3.50;2.50;;;2.90;99.90;;;;;;5071171;28;20762;-70
2021/12/08 02:03:16;;;;;;;2.97;2.10;;;2.90;99.90;;;;;;5071172;28;20660;-68
2021/12/08 02:05:45;;;;;;;3.35;2.35;;;2.90;99.90;;;;;;5071234;28;20274;-69
2021/12/08 02:08:13;;;;;;;3.88;2.25;;;2.80;99.90;;;;;;5071184;28;20288;-69
2021/12/08 02:10:42;;;;;;;3.53;2.35;;;2.80;99.90;;;;;;5071265;28;20234;-70
2021/12/08 02:13:12;;;;;;;3.42;2.33;;;2.80;99.90;;;;;;5071110;28;20196;-68
2021/12/08 02:15:41;;;;;;;6.80;3.20;;;2.70;99.90;;;;;;5070998;28;20207;-68
2021/12/08 02:18:15;;;;;;;2.97;2.42;;;2.50;99.90;;;;;;5070742;28;20249;-68
2021/12/08 02:20:45;;;;;;;4.40;2.40;;;2.40;99.90;;;;;;5064795;28;20229;-69
2021/12/08 02:23:15;;;;;;;2.88;2.47;;;2.30;99.90;;;;;;5050979;28;20219;-68
2021/12/08 02:25:44;;;;;;;7.85;3.13;;;2.30;99.90;;;;;;5051004;28;20204;-70
2021/12/08 02:28:13;;;;;;;4.05;2.50;;;2.20;99.90;;;;;;5050821;28;20295;-69
2021/12/08 02:30:45;;;;;;;2.42;2.20;;;2.20;99.90;;;;;;5050875;28;20263;-69
2021/12/08 02:47:15;;;;;;;4.80;3.00;;;2.40;99.90;;;;;;5070818;28;20615;-71
2021/12/08 02:49:43;;;;;;;3.60;3.30;;;2.30;99.90;;;;;;5071120;28;20210;-71
2021/12/08 02:52:14;;;;;;;6.80;3.45;;;2.30;99.90;;;;;;5070344;28;20227;-68
2021/12/08 02:54:48;;;;;;;3.25;2.95;;;2.30;99.90;;;;;;5070500;28;20273;-68
2021/12/08 02:57:18;;;;;;;3.28;2.90;;;2.20;99.90;;;;;;5070875;28;20219;-68
2021/12/08 02:59:47;;;;;;;4.90;3.50;;;2.10;99.90;;;;;;5070860;28;20830;-67
2021/12/08 03:02:15;;;;;;;5.43;3.15;;;2.10;99.90;;;;;;5074021;28;20282;-68
2021/12/08 03:04:45;;;;;;;8.18;3.72;;;2.00;99.90;;;;;;5074327;28;20210;-68
2021/12/08 03:07:13;;;;;;;3.80;3.50;;;2.00;99.90;;;;;;5074198;28;20215;-68
2021/12/08 03:09:42;;;;;;;4.22;3.00;;;2.10;99.90;;;;;;5074337;28;20199;-68
2021/12/08 03:12:10;;;;;;;4.10;3.70;;;2.10;99.90;;;;;;5073355;28;20208;-68
2021/12/08 03:14:38;;;;;;;3.60;3.30;;;2.10;99.90;;;;;;5073463;28;20262;-68
2021/12/08 03:17:09;;;;;;;6.20;3.33;;;2.10;99.90;;;;;;5074042;28;20249;-68
2021/12/08 03:19:37;;;;;;;4.57;3.92;;;2.20;99.90;;;;;;5074156;28;20199;-68
2021/12/08 03:22:10;;;;;;;5.03;4.30;;;2.10;99.90;;;;;;5073766;28;20226;-69
2021/12/08 03:24:41;;;;;;;7.65;4.90;;;2.00;99.90;;;;;;5073334;28;20215;-70
2021/12/08 03:27:14;;;;;;;5.20;4.70;;;2.00;99.90;;;;;;5065315;28;20242;-70
2021/12/08 03:29:49;;;;;;;6.00;5.18;;;2.00;99.90;;;;;;5053972;28;20221;-70
2021/12/08 03:32:24;;;;;;;6.40;5.85;;;1.90;99.90;;;;;;5067967;28;20244;-71
2021/12/08 03:34:52;;;;;;;6.70;5.30;;;1.90;99.90;;;;;;5073825;28;20242;-70
2021/12/08 03:37:24;;;;;;;5.35;4.85;;;1.90;99.90;;;;;;5073794;28;20238;-70
2021/12/08 03:39:52;;;;;;;5.75;5.25;;;2.00;99.90;;;;;;5073936;28;20223;-70
2021/12/08 03:42:26;;;;;;;5.82;5.22;;;1.90;99.90;;;;;;5073751;28;20234;-70
2021/12/08 03:44:57;;;;;;;7.82;5.93;;;1.90;99.90;;;;;;5073498;28;20239;-70
2021/12/08 03:47:28;;;;;;;5.53;5.00;;;2.00;99.90;;;;;;5073453;28;20231;-69
2021/12/08 03:49:59;;;;;;;6.78;5.72;;;2.00;99.90;;;;;;5073562;28;20694;-69
2021/12/08 03:52:27;;;;;;;10.13;6.35;;;2.10;99.90;;;;;;5073130;28;20238;-69
2021/12/08 03:54:55;;;;;;;6.22;5.70;;;2.10;99.90;;;;;;5073051;28;20569;-69
2021/12/08 03:57:25;;;;;;;6.95;6.20;;;2.00;99.90;;;;;;5055471;28;20277;-69
2021/12/08 03:59:53;;;;;;;6.03;5.38;;;2.10;99.90;;;;;;5073416;28;20187;-69
2021/12/08 04:02:21;;;;;;;6.78;6.05;;;2.00;99.90;;;;;;5072797;28;20230;-69
2021/12/08 04:04:51;;;;;;;6.03;5.53;;;2.20;99.90;;;;;;5072980;28;20554;-69
2021/12/08 04:07:19;;;;;;;6.32;5.78;;;2.30;99.90;;;;;;5073295;28;20222;-69
2021/12/08 04:09:49;;;;;;;5.60;5.10;;;2.30;99.90;;;;;;5072825;28;20246;-69
2021/12/08 04:12:19;;;;;;;5.97;5.38;;;2.30;99.90;;;;;;5072175;28;20203;-69
2021/12/08 04:14:53;;;;;;;5.93;5.53;;;2.20;99.90;;;;;;5071822;28;20314;-67
2021/12/08 04:17:26;;;;;;;6.53;5.93;;;2.20;99.90;;;;;;5070722;28;20233;-69
2021/12/08 04:19:56;;;;;;;8.75;7.03;;;2.20;99.90;;;;;;5064716;28;20222;-69
2021/12/08 04:22:30;;;;;;;6.35;5.78;;;2.20;99.90;;;;;;5072529;28;20226;-67
2021/12/08 04:25:01;;;;;;;6.88;6.22;;;2.20;99.90;;;;;;5072652;28;20262;-69
2021/12/08 04:27:32;;;;;;;7.72;7.13;;;2.30;99.90;;;;;;5072949;28;20221;-69
2021/12/08 04:30:03;;;;;;;6.70;5.68;;;2.30;99.90;;;;;;5072693;28;20779;-69
2021/12/08 04:32:33;;;;;;;8.82;6.20;;;2.30;99.90;;;;;;5059309;28;20669;-68
2021/12/08 04:35:04;;;;;;;7.60;7.00;;;2.30;99.90;;;;;;5056276;28;20212;-69
2021/12/08 04:37:35;;;;;;;7.72;7.10;;;2.30;99.90;;;;;;5052804;28;20278;-69
2021/12/08 04:40:17;;;;;;;7.60;6.90;;;2.30;99.90;;;;;;5061147;28;20271;-69
2021/12/08 04:42:57;;;;;;;7.15;6.45;;;2.30;99.90;;;;;;5052260;28;20223;-69
2021/12/08 04:45:39;;;;;;;6.50;6.00;;;2.20;99.90;;;;;;5055161;28;21372;-69
2021/12/08 04:48:26;;;;;;;7.13;6.63;;;2.20;99.90;;;;;;5072214;28;20236;-69
2021/12/08 04:51:17;;;;;;;7.03;6.40;;;2.30;99.90;;;;;;5072624;28;20199;-68
2021/12/08 04:54:04;;;;;;;7.00;6.30;;;2.30;99.90;;;;;;5072168;28;20246;-69
2021/12/08 05:02:26;;;;;;;9.52;6.68;;;2.40;99.90;;;;;;5072076;28;20188;-69
2021/12/08 05:05:10;;;;;;;6.25;5.85;;;2.40;99.90;;;;;;5071970;28;20215;-69
2021/12/08 05:07:49;;;;;;;6.15;5.75;;;2.40;99.90;;;;;;5072337;28;20235;-70
2021/12/08 05:10:25;;;;;;;6.65;6.07;;;2.40;99.90;;;;;;5072211;28;20292;-69
2021/12/08 05:12:54;;;;;;;6.00;5.53;;;2.50;99.90;;;;;;5071703;28;20611;-69
2021/12/08 05:15:26;;;;;;;7.05;6.43;;;2.50;99.90;;;;;;5071323;28;20235;-69
2021/12/08 05:18:00;;;;;;;6.88;6.25;;;2.50;99.90;;;;;;5071912;28;20196;-70
2021/12/08 05:20:36;;;;;;;7.05;6.25;;;2.50;99.90;;;;;;5071935;28;20191;-70
2021/12/08 05:23:07;;;;;;;7.07;6.38;;;2.60;99.90;;;;;;5071563;28;20558;-69
2021/12/08 05:25:38;;;;;;;6.80;6.20;;;2.60;99.90;;;;;;5070793;28;20236;-69
2021/12/08 05:28:16;;;;;;;6.55;5.85;;;2.60;99.90;;;;;;5072051;28;20203;-70
2021/12/08 05:30:48;;;;;;;5.72;5.32;;;2.70;99.90;;;;;;5071854;28;20258;-69
2021/12/08 05:33:18;;;;;;;7.07;6.28;;;2.70;99.90;;;;;;5071391;28;20282;-69
2021/12/08 05:35:47;;;;;;;6.32;5.72;;;2.70;99.90;;;;;;5071948;28;20202;-69
2021/12/08 05:38:16;;;;;;;5.95;5.35;;;2.80;99.90;;;;;;5071986;28;20204;-70
2021/12/08 05:40:58;;;;;;;6.40;5.10;;;2.80;99.90;;;;;;5072284;28;20191;-70
2021/12/08 05:43:26;;;;;;;6.20;5.63;;;2.80;99.90;;;;;;5055017;28;20229;-70
2021/12/08 05:45:55;;;;;;;6.15;5.55;;;2.90;99.90;;;;;;5058705;28;20214;-70
2021/12/08 05:48:27;;;;;;;5.45;5.05;;;2.80;99.90;;;;;;5071410;28;20206;-69
2021/12/08 05:50:59;;;;;;;7.28;5.00;;;2.80;99.90;;;;;;5071774;28;20254;-69
2021/12/08 05:53:28;;;;;;;6.53;5.18;;;2.90;99.90;;;;;;5070793;28;20234;-69
2021/12/08 05:55:56;;;;;;;5.70;5.30;;;3.00;99.90;;;;;;5071424;28;20234;-69
2021/12/08 05:58:26;;;;;;;6.30;5.70;;;2.90;99.90;;;;;;5071405;28;20266;-69
2021/12/08 06:00:58;;;;;;;5.55;5.15;;;2.90;99.90;;;;;;5071518;28;20230;-68
2021/12/08 06:03:27;;;;;;;6.32;5.80;;;2.90;99.90;;;;;;5070894;28;20226;-68
2021/12/08 06:05:59;;;;;;;6.65;5.80;;;2.90;99.90;;;;;;5068007;28;20203;-69
2021/12/08 06:08:28;;;;;;;8.50;6.53;;;2.90;99.90;;;;;;5055892;28;20195;-68
2021/12/08 06:10:59;;;;;;;6.32;5.72;;;2.90;99.90;;;;;;5071106;28;20273;-69
2021/12/08 06:13:27;;;;;;;5.93;5.53;;;3.00;99.90;;;;;;5070542;28;20250;-69
2021/12/08 06:15:56;;;;;;;6.90;6.30;;;2.90;99.90;;;;;;5071143;28;20203;-69
2021/12/08 06:18:26;;;;;;;8.05;6.47;;;2.90;99.90;;;;;;5071040;28;20199;-68
2021/12/08 06:20:59;;;;;;;7.85;7.25;;;2.90;99.90;;;;;;5071235;28;20252;-69
2021/12/08 06:23:27;;;;;;;7.63;6.93;;;2.90;99.90;;;;;;5070613;28;20254;-69
2021/12/08 06:25:55;;;;;;;6.53;5.93;;;3.00;99.90;;;;;;5070784;28;20237;-69
2021/12/08 06:28:23;;;;;;;7.15;6.57;;;3.00;99.90;;;;;;5071072;28;20309;-69
2021/12/08 06:30:52;;;;;;;7.15;6.45;;;3.10;99.90;;;;;;5070948;28;20210;-69
2021/12/08 06:33:21;;;;;;;7.75;7.05;;;3.00;99.90;;;;;;5070644;28;20199;-68
2021/12/08 06:35:54;;;;;;;7.95;6.82;;;3.30;99.90;;;;;;5073030;28;20283;-69
2021/12/08 06:38:25;;;;;;;7.50;6.82;;;3.10;99.90;;;;;;5074612;28;20269;-69
2021/12/08 06:40:57;;;;;;;7.90;7.20;;;3.10;99.90;;;;;;5074797;28;20397;-69
2021/12/08 06:43:29;;;;;;;8.00;7.30;;;3.20;99.90;;;;;;5070588;28;20226;-69
2021/12/08 06:45:59;;;;;;;7.63;7.03;;;3.30;99.90;;;;;;5065301;28;20628;-70
2021/12/08 06:48:32;;;;;;;7.20;6.60;;;3.20;99.90;;;;;;5076287;28;20199;-69
2021/12/08 06:51:07;;;;;;;7.70;6.90;;;3.30;99.90;;;;;;5076058;28;20302;-69
2021/12/08 06:53:38;;;;;;;7.50;6.80;;;3.30;99.90;;;;;;5058005;28;20305;-69
2021/12/08 06:56:11;;;;;;;7.38;6.72;;;3.30;99.90;;;;;;5077076;28;20207;-69
2021/12/08 06:58:43;;;;;;;7.15;6.65;;;3.30;99.90;;;;;;5076252;28;20223;-70
2021/12/08 07:01:20;;;;;;;8.18;7.38;;;3.30;99.90;;;;;;5076279;28;20210;-69
2021/12/08 07:04:09;;;;;;;8.50;7.80;;;3.30;99.90;;;;;;5075587;28;20270;-69
2021/12/08 07:06:48;;;;;;;8.70;7.47;;;3.20;99.90;;;;;;5076796;28;20690;-70
2021/12/08 07:09:21;;;;;;;12.55;8.32;;;3.10;99.90;;;;;;5075645;28;20195;-69
2021/12/08 07:11:51;;;;;;;8.70;7.85;;;3.10;99.90;;;;;;5073874;28;20415;-69
2021/12/08 07:14:21;;;;;;;8.80;8.07;;;3.20;99.90;;;;;;5100500;22;20257;-65
2021/12/08 07:16:52;;;;;;;8.13;7.43;;;3.30;99.90;;;;;;5075179;28;20254;-65
2021/12/08 07:19:28;;;;;;;8.10;7.38;;;3.40;99.90;;;;;;5074194;28;20221;-64
2021/12/08 07:21:58;;;;;;;9.02;8.15;;;3.50;99.90;;;;;;5074428;28;20228;-65
2021/12/08 07:24:31;;;;;;;10.18;9.35;;;3.50;99.90;;;;;;5094048;28;20272;-65
2021/12/08 07:27:03;;;;;;;11.00;9.82;;;3.50;99.90;;;;;;5094302;28;20191;-65
2021/12/08 07:29:35;;;;;;;9.45;8.68;;;3.50;99.90;;;;;;5094586;28;20282;-64
2021/12/08 07:32:08;;;;;;;10.63;9.38;;;3.50;99.90;;;;;;5096071;28;20199;-65
2021/12/08 07:34:37;;;;;;;10.75;9.23;;;3.40;99.90;;;;;;5089325;28;20308;-66
2021/12/08 07:37:08;;;;;;;9.10;8.25;;;3.40;99.90;;;;;;5097441;28;20221;-65
2021/12/08 07:39:44;;;;;;;10.38;8.80;;;3.40;99.90;;;;;;5093339;28;20191;-65
2021/12/08 07:42:18;;;;;;;8.30;7.57;;;3.50;99.90;;;;;;5093093;28;20195;-66
2021/12/08 07:44:54;;;;;;;13.20;8.40;;;3.60;99.90;;;;;;5093845;28;20248;-67
2021/12/08 07:47:24;;;;;;;8.20;7.50;;;3.70;99.90;;;;;;5092561;28;20678;-67
2021/12/08 07:49:57;;;;;;;8.00;7.30;;;3.70;99.90;;;;;;5093687;28;20711;-65
2021/12/08 07:52:29;;;;;;;8.65;7.85;;;3.90;99.90;;;;;;5093757;28;20216;-66
2021/12/08 07:54:59;;;;;;;8.60;7.80;;;4.00;99.90;;;;;;5093361;28;20253;-66
2021/12/08 07:57:31;;;;;;;9.35;8.40;;;4.10;99.90;;;;;;5093733;28;20248;-65
2021/12/08 08:00:03;;;;;;;10.23;9.32;;;4.00;99.90;;;;;;5093572;28;20269;-66
2021/12/08 08:02:31;;;;;;;12.77;9.35;;;4.00;99.90;;;;;;5093552;28;20194;-67
2021/12/08 08:05:04;;;;;;;13.27;9.15;;;4.00;99.90;;;;;;5093360;28;20299;-66
2021/12/08 08:07:33;;;;;;;10.48;9.30;;;3.90;99.90;;;;;;5093504;28;20252;-65
2021/12/08 08:10:12;;;;;;;9.77;8.98;;;4.00;99.90;;;;;;5093303;28;20294;-66
2021/12/08 08:12:41;;;;;;;9.00;8.10;;;4.10;99.90;;;;;;5093437;28;20234;-67
2021/12/08 08:15:14;;;;;;;9.23;8.30;;;4.20;99.90;;;;;;5092931;28;20272;-65
2021/12/08 08:17:45;;;;;;;9.57;8.50;;;4.20;99.90;;;;;;5093361;28;20222;-65
2021/12/08 08:20:17;;;;;;;8.70;7.88;;;4.30;99.90;;;;;;5093431;28;20213;-66
2021/12/08 08:22:45;;;;;;;12.88;11.65;;;4.30;99.90;;;;;;5092385;28;20210;-67
2021/12/08 08:25:18;;;;;;;16.30;14.70;;;4.20;99.90;;;;;;5092367;28;20719;-66
2021/12/08 08:27:46;;;;;;;14.52;12.55;;;4.10;99.90;;;;;;5093152;28;20635;-66
2021/12/08 08:30:18;;;;;;;17.33;12.98;;;4.10;99.90;;;;;;5093075;28;20248;-66
2021/12/08 08:32:51;;;;;;;13.68;12.10;;;4.00;99.90;;;;;;5093128;28;20277;-66
2021/12/08 08:35:22;;;;;;;12.65;11.40;;;4.10;99.90;;;;;;5093199;28;20639;-66
2021/12/08 08:37:52;;;;;;;13.98;12.65;;;4.00;99.90;;;;;;5093184;28;20558;-66
2021/12/08 08:40:26;;;;;;;11.45;10.45;;;4.10;99.90;;;;;;5092655;28;20205;-68
2021/12/08 08:42:55;;;;;;;10.40;9.50;;;4.20;99.90;;;;;;5092803;28;20246;-67
2021/12/08 08:45:28;;;;;;;9.57;8.82;;;4.20;99.90;;;;;;5092608;28;20301;-66
2021/12/08 08:48:00;;;;;;;9.45;8.32;;;4.30;99.90;;;;;;5092507;28;20713;-66
2021/12/08 08:50:38;;;;;;;8.75;7.80;;;4.30;99.90;;;;;;5092773;28;20241;-66
2021/12/08 08:53:09;;;;;;;9.27;8.38;;;4.30;99.90;;;;;;5092553;28;20202;-66
2021/12/08 08:55:48;;;;;;;10.02;8.23;;;4.30;99.90;;;;;;5092285;28;20219;-66
2021/12/08 08:58:17;;;;;;;9.63;8.70;;;4.40;99.90;;;;;;5092240;28;20206;-66
2021/12/08 09:00:50;;;;;;;9.90;8.90;;;4.40;99.90;;;;;;5092780;28;20228;-68
2021/12/08 09:03:21;;;;;;;11.90;10.68;;;4.40;99.90;;;;;;5092152;28;20252;-66
2021/12/08 09:05:53;;;;;;;13.07;11.85;;;4.60;99.90;;;;;;5092594;28;20250;-66
2021/12/08 09:08:27;;;;;;;13.27;12.07;;;4.60;99.90;;;;;;5092497;28;20566;-66
2021/12/08 09:11:00;;;;;;;13.55;12.23;;;4.70;99.90;;;;;;5091858;28;20298;-66
2021/12/08 09:13:33;;;;;;;14.15;11.70;;;4.80;99.90;;;;;;5092048;28;20203;-66
2021/12/08 09:16:07;;;;;;;11.60;10.25;;;4.80;99.90;;;;;;5091943;28;20281;-66
2021/12/08 09:18:46;;;;;;;9.85;8.85;;;4.90;99.90;;;;;;5092306;28;20240;-67
2021/12/08 09:21:19;;;;;;;8.13;7.40;;;5.00;99.90;;;;;;5092228;28;20240;-66
2021/12/08 09:23:53;;;;;;;9.25;8.35;;;5.10;99.90;;;;;;5091534;28;20331;-67
2021/12/08 09:26:24;;;;;;;8.75;7.88;;;5.10;99.90;;;;;;5085506;28;20305;-66
2021/12/08 09:28:56;;;;;;;9.57;8.68;;;5.20;99.90;;;;;;5092306;28;20598;-66
2021/12/08 09:31:27;;;;;;;10.57;9.38;;;5.20;99.90;;;;;;5092478;28;20214;-66
2021/12/08 09:33:59;;;;;;;11.75;9.73;;;5.10;99.90;;;;;;5091516;28;20190;-66
2021/12/08 09:36:32;;;;;;;8.30;7.50;;;5.10;99.90;;;;;;5091924;28;20230;-67
2021/12/08 09:39:06;;;;;;;8.50;7.65;;;5.10;99.90;;;;;;5091790;28;20229;-66
2021/12/08 09:41:39;;;;;;;12.10;8.02;;;5.00;99.90;;;;;;5091955;28;20221;-66
2021/12/08 09:44:10;;;;;;;10.07;8.50;;;5.00;99.90;;;;;;5091591;28;20198;-66
2021/12/08 09:46:42;;;;;;;8.13;7.32;;;4.90;99.90;;;;;;5091346;28;20357;-66
2021/12/08 09:49:12;;;;;;;9.05;8.25;;;4.90;99.90;;;;;;5091668;28;20222;-65
2021/12/08 09:51:41;;;;;;;10.10;9.20;;;5.00;99.90;;;;;;5091621;28;20211;-66
2021/12/08 09:54:10;;;;;;;8.98;8.05;;;5.00;99.90;;;;;;5091227;28;20240;-67
2021/12/08 09:56:40;;;;;;;9.52;8.65;;;5.10;99.90;;;;;;5091832;28;20224;-66
2021/12/08 09:59:09;;;;;;;10.30;9.27;;;5.20;99.90;;;;;;5091553;28;20202;-67
2021/12/08 10:01:40;;;;;;;9.35;8.45;;;5.30;99.90;;;;;;5091600;28;20191;-67
2021/12/08 10:04:10;;;;;;;11.23;10.13;;;5.30;99.90;;;;;;5091328;28;20283;-66
2021/12/08 10:06:40;;;;;;;9.98;9.07;;;5.30;99.90;;;;;;5091503;28;20217;-67
2021/12/08 10:09:09;;;;;;;11.27;10.20;;;5.40;99.90;;;;;;5091215;28;20194;-66
2021/12/08 10:11:37;;;;;;;12.75;10.52;;;5.40;99.90;;;;;;5094180;28;20218;-66
2021/12/08 10:14:06;;;;;;;11.77;10.45;;;5.20;99.90;;;;;;5095586;28;20186;-66
2021/12/08 10:16:35;;;;;;;11.50;10.50;;;5.20;99.90;;;;;;5093802;28;20585;-66
2021/12/08 10:19:04;;;;;;;12.50;10.43;;;5.10;99.90;;;;;;5095591;28;20203;-66
2021/12/08 10:21:36;;;;;;;12.43;11.13;;;5.10;99.90;;;;;;5094653;28;20728;-66
2021/12/08 10:24:15;;;;;;;12.93;11.18;;;5.00;99.90;;;;;;5095222;28;20195;-66
2021/12/08 10:26:43;;;;;;;13.52;11.50;;;5.00;99.90;;;;;;5095600;28;20202;-66
2021/12/08 10:29:13;;;;;;;12.90;11.70;;;5.10;99.90;;;;;;5095792;28;20575;-67
2021/12/08 10:31:44;;;;;;;12.18;11.10;;;5.20;99.90;;;;;;5095012;28;20751;-66
2021/12/08 10:34:23;;;;;;;12.02;10.45;;;5.20;99.90;;;;;;5095161;28;20216;-67
2021/12/08 10:36:55;;;;;;;13.80;10.60;;;5.20;99.90;;;;;;5095280;28;20195;-66
2021/12/08 10:39:26;;;;;;;12.23;10.88;;;5.20;99.90;;;;;;5095477;28;20195;-67
2021/12/08 10:42:04;;;;;;;16.63;10.15;;;5.20;99.90;;;;;;5095156;28;20248;-67
2021/12/08 10:44:48;;;;;;;14.85;11.45;;;5.30;99.90;;;;;;5095001;28;20216;-66
2021/12/08 10:47:24;;;;;;;11.63;10.32;;;5.20;99.90;;;;;;5094639;28;20662;-66
2021/12/08 10:55:32;;;;;;;26.10;20.45;;;5.20;99.90;;;;;;5094879;28;20242;-66
2021/12/08 10:58:00;;;;;;;13.73;11.45;;;5.20;99.90;;;;;;5094932;28;20191;-66
2021/12/08 11:00:32;;;;;;;12.43;11.38;;;5.20;99.90;;;;;;5094984;28;20611;-66
2021/12/08 11:03:06;;;;;;;12.70;11.43;;;5.20;99.90;;;;;;5094832;28;20277;-66
2021/12/08 11:05:41;;;;;;;11.55;10.55;;;5.20;99.90;;;;;;5094182;28;20222;-67
2021/12/08 11:08:13;;;;;;;12.80;11.60;;;5.20;99.90;;;;;;5094868;28;20263;-66
2021/12/08 11:10:46;;;;;;;12.05;10.95;;;5.30;99.90;;;;;;5094670;28;20227;-67
2021/12/08 11:13:15;;;;;;;12.05;10.90;;;5.30;99.90;;;;;;5094250;28;20259;-66
2021/12/08 11:15:46;;;;;;;12.88;11.60;;;5.40;99.90;;;;;;5094035;28;20710;-66
2021/12/08 11:18:17;;;;;;;12.80;11.55;;;5.50;99.90;;;;;;5094394;28;20713;-66
2021/12/08 11:20:52;;;;;;;12.70;11.50;;;5.50;99.90;;;;;;5093063;28;20218;-66
2021/12/08 11:23:39;;;;;;;14.20;10.43;;;5.50;99.90;;;;;;5094355;28;20667;-67
2021/12/08 11:26:20;;;;;;;12.60;10.90;;;5.60;99.90;;;;;;5094280;28;20259;-66
2021/12/08 11:28:57;;;;;;;11.02;10.02;;;5.70;99.90;;;;;;5094906;28;20218;-66
2021/12/08 11:31:30;;;;;;;11.57;10.43;;;5.70;99.90;;;;;;5094297;28;20202;-66
2021/12/08 11:34:01;;;;;;;12.55;11.00;;;5.70;99.90;;;;;;5093758;28;20218;-66
2021/12/08 11:36:33;;;;;;;11.93;10.32;;;5.70;99.90;;;;;;5093800;28;20250;-66
2021/12/08 11:39:08;;;;;;;12.10;10.80;;;5.70;99.90;;;;;;5094099;28;20655;-66
2021/12/08 11:41:38;;;;;;;10.75;9.75;;;5.70;99.90;;;;;;5094094;28;20194;-66
2021/12/08 11:44:12;;;;;;;11.60;10.48;;;5.80;99.90;;;;;;5094115;28;20191;-67
2021/12/08 11:47:03;;;;;;;13.90;12.68;;;5.80;99.90;;;;;;5094184;28;20230;-66
2021/12/08 11:49:32;;;;;;;18.80;11.73;;;5.70;99.90;;;;;;5093600;28;20198;-66
2021/12/08 11:52:02;;;;;;;13.80;11.57;;;5.80;99.90;;;;;;5093140;28;20268;-66
2021/12/08 11:54:47;;;;;;;12.45;11.00;;;5.80;99.90;;;;;;5093758;28;20711;-66
2021/12/08 11:57:18;;;;;;;15.80;14.40;;;5.90;99.90;;;;;;5093042;28;20224;-66
2021/12/08 12:00:00;;;;;;;13.07;11.77;;;5.80;99.90;;;;;;5093463;28;20199;-66
2021/12/08 12:02:34;;;;;;;14.23;12.68;;;5.80;99.90;;;;;;5093608;28;20228;-66
2021/12/08 12:05:05;;;;;;;14.27;12.70;;;5.80;99.90;;;;;;5093516;28;20234;-66
2021/12/08 12:07:33;;;;;;;12.43;11.23;;;5.80;99.90;;;;;;5093629;28;20214;-67
2021/12/08 12:10:01;;;;;;;13.52;11.00;;;5.90;99.90;;;;;;5093519;28;20245;-66
2021/12/08 12:12:29;;;;;;;12.85;11.55;;;5.90;99.90;;;;;;5093119;28;20210;-66
2021/12/08 12:14:57;;;;;;;14.75;13.40;;;6.00;99.90;;;;;;5092610;28;20258;-67
2021/12/08 12:17:25;;;;;;;11.07;10.07;;;6.10;99.90;;;;;;5093395;28;20191;-67
2021/12/08 12:20:02;;;;;;;11.38;9.75;;;6.20;99.90;;;;;;5093325;28;20233;-67
2021/12/08 12:22:41;;;;;;;11.32;10.23;;;6.30;99.90;;;;;;5093361;28;20194;-66
2021/12/08 12:25:42;;;;;;;12.90;10.23;;;6.40;99.90;;;;;;5093051;28;20245;-66
2021/12/08 12:28:25;;;;;;;10.68;9.82;;;6.40;99.90;;;;;;5093261;28;20229;-66
2021/12/08 12:31:06;;;;;;;15.75;13.60;;;6.50;99.90;;;;;;5092686;28;20212;-66
2021/12/08 12:33:41;;;;;;;12.00;10.32;;;6.50;99.90;;;;;;5092505;28;20249;-66
2021/12/08 12:36:22;;;;;;;10.57;9.50;;;6.30;99.90;;;;;;5092760;28;20271;-65
2021/12/08 12:38:51;;;;;;;10.82;9.57;;;6.30;99.90;;;;;;5092995;28;20229;-66
2021/12/08 12:41:31;;;;;;;12.63;10.50;;;6.40;99.90;;;;;;5092837;28;20244;-66
2021/12/08 12:44:15;;;;;;;14.43;11.80;;;6.40;99.90;;;;;;5092590;28;20186;-66
2021/12/08 12:47:13;;;;;;;12.50;11.20;;;6.40;99.90;;;;;;5081274;28;20639;-66
2021/12/08 12:49:44;;;;;;;10.43;9.40;;;6.50;99.90;;;;;;5092782;28;20198;-66
2021/12/08 12:52:14;;;;;;;12.85;10.40;;;6.50;99.90;;;;;;5092508;28;20630;-68
2021/12/08 12:54:44;;;;;;;11.13;10.13;;;6.60;99.90;;;;;;5092415;28;20576;-67
2021/12/08 12:57:12;;;;;;;10.75;9.65;;;6.50;99.90;;;;;;5092691;28;20603;-66
2021/12/08 12:59:45;;;;;;;9.32;8.52;;;6.50;99.90;;;;;;5092316;28;20230;-67
2021/12/08 13:02:20;;;;;;;10.90;9.90;;;6.40;99.90;;;;;;5092527;28;20248;-66
2021/12/08 13:04:55;;;;;;;10.80;9.48;;;6.30;99.90;;;;;;5092500;28;20607;-66
2021/12/08 13:07:25;;;;;;;11.20;9.68;;;6.20;99.90;;;;;;5092614;28;20185;-67
2021/12/08 13:09:54;;;;;;;10.65;9.60;;;6.20;99.90;;;;;;5092664;28;20198;-67
2021/12/08 13:12:25;;;;;;;11.50;10.30;;;6.10;99.90;;;;;;5092213;28;20195;-66
2021/12/08 13:15:13;;;;;;;12.05;10.93;;;6.10;99.90;;;;;;5118317;22;20554;-62
2021/12/08 13:18:00;;;;;;;11.55;10.43;;;6.20;99.90;;;;;;5101445;28;20636;-62
2021/12/08 13:20:30;;;;;;;13.40;11.52;;;6.20;99.90;;;;;;5111288;28;20202;-62
2021/12/08 13:23:01;;;;;;;12.18;10.88;;;6.20;99.90;;;;;;5113215;28;20228;-62
2021/12/08 13:26:00;;;;;;;11.43;10.30;;;6.30;99.90;;;;;;5122511;27;20270;-62
2021/12/08 13:28:47;;;;;;;12.18;10.88;;;6.30;99.90;;;;;;5134065;27;20201;-61
2021/12/08 13:31:24;;;;;;;10.45;9.40;;;6.30;99.90;;;;;;5093732;28;20214;-62
2021/12/08 13:33:58;;;;;;;11.80;10.60;;;6.40;99.90;;;;;;5093682;28;20271;-62
2021/12/08 13:36:32;;;;;;;10.80;9.80;;;6.40;99.90;;;;;;5093184;28;20263;-62
2021/12/08 13:39:12;;;;;;;13.20;11.00;;;6.30;99.90;;;;;;5093259;28;20190;-62
2021/12/08 13:41:41;;;;;;;10.60;9.20;;;6.30;99.90;;;;;;5092911;28;20251;-62
2021/12/08 13:44:24;;;;;;;14.13;10.30;;;6.20;99.90;;;;;;5099407;28;20220;-61